sensor_id;sensor_type;location;lat;lon;timestamp;P1;durP1;ratioP1;P2;durP2;ratioP2
19727;SDS011;10015;52.530;13.390;2023-12-20T00:01:49;5.07;;;3.60;;
19727;SDS011;10015;52.530;13.390;2023-12-20T00:04:15;4.63;;;3.60;;
19727;SDS011;10015;52.530;13.390;2023-12-20T00:06:41;7.43;;;3.97;;
19727;SDS011;10015;52.530;13.390;2023-12-20T00:09:07;5.73;;;3.70;;
19727;SDS011;10015;52.530;13.390;2023-12-20T00:11:32;4.43;;;3.20;;
19727;SDS011;10015;52.530;13.390;2023-12-20T00:13:58;4.40;;;3.33;;
19727;SDS011;10015;52.530;13.390;2023-12-20T00:16:24;4.50;;;3.40;;
19727;SDS011;10015;52.530;13.390;2023-12-20T00:18:50;4.60;;;3.40;;
19727;SDS011;10015;52.530;13.390;2023-12-20T00:21:16;4.07;;;3.30;;
19727;SDS011;10015;52.530;13.390;2023-12-20T00:23:42;3.87;;;3.30;;
19727;SDS011;10015;52.530;13.390;2023-12-20T00:26:08;5.87;;;3.60;;
19727;SDS011;10015;52.530;13.390;2023-12-20T00:28:33;5.00;;;3.40;;
19727;SDS011;10015;52.530;13.390;2023-12-20T00:30:59;4.33;;;3.50;;
19727;SDS011;10015;52.530;13.390;2023-12-20T00:33:25;3.80;;;2.90;;
19727;SDS011;10015;52.530;13.390;2023-12-20T00:35:51;3.50;;;3.00;;
19727;SDS011;10015;52.530;13.390;2023-12-20T00:38:17;4.83;;;3.03;;
19727;SDS011;10015;52.530;13.390;2023-12-20T00:40:43;3.83;;;2.90;;
19727;SDS011;10015;52.530;13.390;2023-12-20T00:43:09;4.03;;;3.13;;
19727;SDS011;10015;52.530;13.390;2023-12-20T00:45:35;4.70;;;2.80;;
19727;SDS011;10015;52.530;13.390;2023-12-20T00:48:00;3.80;;;2.80;;
19727;SDS011;10015;52.530;13.390;2023-12-20T00:50:26;3.67;;;2.77;;
19727;SDS011;10015;52.530;13.390;2023-12-20T00:52:52;4.60;;;3.00;;
19727;SDS011;10015;52.530;13.390;2023-12-20T00:55:20;3.97;;;2.80;;
19727;SDS011;10015;52.530;13.390;2023-12-20T00:57:46;4.17;;;2.67;;
19727;SDS011;10015;52.530;13.390;2023-12-20T01:00:12;4.20;;;2.80;;
19727;SDS011;10015;52.530;13.390;2023-12-20T01:02:38;5.20;;;3.47;;
19727;SDS011;10015;52.530;13.390;2023-12-20T01:05:05;5.20;;;3.60;;
19727;SDS011;10015;52.530;13.390;2023-12-20T01:07:32;5.07;;;3.57;;
19727;SDS011;10015;52.530;13.390;2023-12-20T01:09:58;4.07;;;3.00;;
19727;SDS011;10015;52.530;13.390;2023-12-20T01:12:24;5.07;;;3.47;;
19727;SDS011;10015;52.530;13.390;2023-12-20T01:14:50;5.43;;;3.20;;
19727;SDS011;10015;52.530;13.390;2023-12-20T01:17:16;4.23;;;3.13;;
19727;SDS011;10015;52.530;13.390;2023-12-20T01:19:42;4.43;;;3.30;;
19727;SDS011;10015;52.530;13.390;2023-12-20T01:22:08;5.30;;;3.70;;
19727;SDS011;10015;52.530;13.390;2023-12-20T01:24:34;5.23;;;3.47;;
19727;SDS011;10015;52.530;13.390;2023-12-20T01:26:59;4.77;;;3.50;;
19727;SDS011;10015;52.530;13.390;2023-12-20T01:29:25;5.33;;;3.70;;
19727;SDS011;10015;52.530;13.390;2023-12-20T01:31:51;4.27;;;3.30;;
19727;SDS011;10015;52.530;13.390;2023-12-20T01:34:17;5.60;;;3.47;;
19727;SDS011;10015;52.530;13.390;2023-12-20T01:36:43;4.00;;;3.03;;
19727;SDS011;10015;52.530;13.390;2023-12-20T01:39:09;3.87;;;2.90;;
19727;SDS011;10015;52.530;13.390;2023-12-20T01:41:35;4.37;;;3.47;;
19727;SDS011;10015;52.530;13.390;2023-12-20T01:44:01;4.50;;;3.73;;
19727;SDS011;10015;52.530;13.390;2023-12-20T01:46:27;3.23;;;2.70;;
19727;SDS011;10015;52.530;13.390;2023-12-20T01:48:53;3.90;;;2.90;;
19727;SDS011;10015;52.530;13.390;2023-12-20T01:51:19;3.67;;;2.80;;
19727;SDS011;10015;52.530;13.390;2023-12-20T01:53:46;3.20;;;2.67;;
19727;SDS011;10015;52.530;13.390;2023-12-20T01:56:12;4.17;;;2.73;;
19727;SDS011;10015;52.530;13.390;2023-12-20T01:58:41;3.30;;;2.63;;
19727;SDS011;10015;52.530;13.390;2023-12-20T02:01:09;4.47;;;2.90;;
19727;SDS011;10015;52.530;13.390;2023-12-20T02:03:36;3.90;;;2.97;;
19727;SDS011;10015;52.530;13.390;2023-12-20T02:06:03;3.83;;;2.90;;
19727;SDS011;10015;52.530;13.390;2023-12-20T02:08:30;3.60;;;2.80;;
19727;SDS011;10015;52.530;13.390;2023-12-20T02:10:56;3.10;;;2.30;;
19727;SDS011;10015;52.530;13.390;2023-12-20T02:13:22;3.83;;;2.37;;
19727;SDS011;10015;52.530;13.390;2023-12-20T02:15:48;3.93;;;2.10;;
19727;SDS011;10015;52.530;13.390;2023-12-20T02:18:14;5.03;;;1.67;;
19727;SDS011;10015;52.530;13.390;2023-12-20T02:20:42;2.77;;;1.37;;
19727;SDS011;10015;52.530;13.390;2023-12-20T02:23:08;1.70;;;1.00;;
19727;SDS011;10015;52.530;13.390;2023-12-20T02:25:34;1.40;;;0.90;;
19727;SDS011;10015;52.530;13.390;2023-12-20T02:27:59;1.80;;;0.90;;
19727;SDS011;10015;52.530;13.390;2023-12-20T02:30:26;1.27;;;0.90;;
19727;SDS011;10015;52.530;13.390;2023-12-20T02:32:52;2.13;;;1.10;;
19727;SDS011;10015;52.530;13.390;2023-12-20T02:35:19;2.73;;;1.13;;
19727;SDS011;10015;52.530;13.390;2023-12-20T02:37:45;1.67;;;1.40;;
19727;SDS011;10015;52.530;13.390;2023-12-20T02:40:11;2.07;;;1.30;;
19727;SDS011;10015;52.530;13.390;2023-12-20T02:42:37;2.17;;;1.70;;
19727;SDS011;10015;52.530;13.390;2023-12-20T02:45:02;2.87;;;1.90;;
19727;SDS011;10015;52.530;13.390;2023-12-20T02:47:29;2.67;;;2.10;;
19727;SDS011;10015;52.530;13.390;2023-12-20T02:49:55;3.30;;;2.23;;
19727;SDS011;10015;52.530;13.390;2023-12-20T02:52:22;3.77;;;2.20;;
19727;SDS011;10015;52.530;13.390;2023-12-20T02:54:50;3.87;;;2.77;;
19727;SDS011;10015;52.530;13.390;2023-12-20T02:57:16;4.53;;;2.77;;
19727;SDS011;10015;52.530;13.390;2023-12-20T02:59:42;3.60;;;2.90;;
19727;SDS011;10015;52.530;13.390;2023-12-20T03:02:08;5.30;;;3.47;;
19727;SDS011;10015;52.530;13.390;2023-12-20T03:04:33;4.30;;;2.70;;
19727;SDS011;10015;52.530;13.390;2023-12-20T03:06:59;3.93;;;2.70;;
19727;SDS011;10015;52.530;13.390;2023-12-20T03:09:25;5.03;;;3.20;;
19727;SDS011;10015;52.530;13.390;2023-12-20T03:11:51;4.63;;;2.87;;
19727;SDS011;10015;52.530;13.390;2023-12-20T03:14:17;5.57;;;2.90;;
19727;SDS011;10015;52.530;13.390;2023-12-20T03:16:46;5.33;;;2.90;;
19727;SDS011;10015;52.530;13.390;2023-12-20T03:19:15;3.43;;;2.20;;
19727;SDS011;10015;52.530;13.390;2023-12-20T03:21:41;6.60;;;2.90;;
19727;SDS011;10015;52.530;13.390;2023-12-20T03:24:07;3.23;;;2.10;;
19727;SDS011;10015;52.530;13.390;2023-12-20T03:26:33;4.20;;;2.10;;
19727;SDS011;10015;52.530;13.390;2023-12-20T03:28:59;2.47;;;1.77;;
19727;SDS011;10015;52.530;13.390;2023-12-20T03:31:24;3.20;;;1.90;;
19727;SDS011;10015;52.530;13.390;2023-12-20T03:33:50;4.53;;;2.00;;
19727;SDS011;10015;52.530;13.390;2023-12-20T03:36:19;5.77;;;1.77;;
19727;SDS011;10015;52.530;13.390;2023-12-20T03:38:45;4.57;;;1.70;;
19727;SDS011;10015;52.530;13.390;2023-12-20T03:41:11;5.23;;;1.53;;
19727;SDS011;10015;52.530;13.390;2023-12-20T03:43:37;5.23;;;2.07;;
19727;SDS011;10015;52.530;13.390;2023-12-20T03:46:03;3.50;;;1.50;;
19727;SDS011;10015;52.530;13.390;2023-12-20T03:48:29;3.67;;;1.30;;
19727;SDS011;10015;52.530;13.390;2023-12-20T03:50:56;2.70;;;1.43;;
19727;SDS011;10015;52.530;13.390;2023-12-20T03:53:22;2.73;;;1.20;;
19727;SDS011;10015;52.530;13.390;2023-12-20T03:55:48;3.63;;;1.30;;
19727;SDS011;10015;52.530;13.390;2023-12-20T03:58:14;6.03;;;1.63;;
19727;SDS011;10015;52.530;13.390;2023-12-20T04:00:40;5.27;;;1.60;;
19727;SDS011;10015;52.530;13.390;2023-12-20T04:03:06;4.97;;;1.30;;
19727;SDS011;10015;52.530;13.390;2023-12-20T04:05:32;5.67;;;1.53;;
19727;SDS011;10015;52.530;13.390;2023-12-20T04:07:59;3.87;;;1.40;;
19727;SDS011;10015;52.530;13.390;2023-12-20T04:10:26;5.07;;;1.40;;
19727;SDS011;10015;52.530;13.390;2023-12-20T04:12:53;4.83;;;1.43;;
19727;SDS011;10015;52.530;13.390;2023-12-20T04:15:20;7.43;;;1.20;;
19727;SDS011;10015;52.530;13.390;2023-12-20T04:17:46;5.23;;;1.20;;
19727;SDS011;10015;52.530;13.390;2023-12-20T04:20:12;6.83;;;2.00;;
19727;SDS011;10015;52.530;13.390;2023-12-20T04:22:37;8.27;;;1.40;;
19727;SDS011;10015;52.530;13.390;2023-12-20T04:25:03;5.70;;;1.30;;
19727;SDS011;10015;52.530;13.390;2023-12-20T04:27:30;6.37;;;1.30;;
19727;SDS011;10015;52.530;13.390;2023-12-20T04:29:56;5.97;;;1.63;;
19727;SDS011;10015;52.530;13.390;2023-12-20T04:32:22;6.80;;;1.43;;
19727;SDS011;10015;52.530;13.390;2023-12-20T04:34:48;4.93;;;1.30;;
19727;SDS011;10015;52.530;13.390;2023-12-20T04:37:13;7.67;;;1.20;;
19727;SDS011;10015;52.530;13.390;2023-12-20T04:39:39;8.40;;;1.60;;
19727;SDS011;10015;52.530;13.390;2023-12-20T04:42:06;7.47;;;1.50;;
19727;SDS011;10015;52.530;13.390;2023-12-20T04:44:32;7.27;;;1.50;;
19727;SDS011;10015;52.530;13.390;2023-12-20T04:46:58;5.77;;;1.23;;
19727;SDS011;10015;52.530;13.390;2023-12-20T04:49:25;6.03;;;1.33;;
19727;SDS011;10015;52.530;13.390;2023-12-20T04:51:50;3.70;;;1.13;;
19727;SDS011;10015;52.530;13.390;2023-12-20T04:54:16;6.37;;;1.63;;
19727;SDS011;10015;52.530;13.390;2023-12-20T04:56:42;6.73;;;1.60;;
19727;SDS011;10015;52.530;13.390;2023-12-20T04:59:08;5.57;;;1.50;;
19727;SDS011;10015;52.530;13.390;2023-12-20T05:01:34;6.77;;;2.00;;
19727;SDS011;10015;52.530;13.390;2023-12-20T05:04:00;4.13;;;1.50;;
19727;SDS011;10015;52.530;13.390;2023-12-20T05:06:26;5.10;;;1.50;;
19727;SDS011;10015;52.530;13.390;2023-12-20T05:08:52;3.27;;;1.30;;
19727;SDS011;10015;52.530;13.390;2023-12-20T05:11:18;7.47;;;1.73;;
19727;SDS011;10015;52.530;13.390;2023-12-20T05:13:44;4.40;;;1.40;;
19727;SDS011;10015;52.530;13.390;2023-12-20T05:16:09;5.13;;;1.63;;
19727;SDS011;10015;52.530;13.390;2023-12-20T05:18:35;6.53;;;1.83;;
19727;SDS011;10015;52.530;13.390;2023-12-20T05:21:01;6.13;;;1.53;;
19727;SDS011;10015;52.530;13.390;2023-12-20T05:23:27;5.33;;;1.60;;
19727;SDS011;10015;52.530;13.390;2023-12-20T05:25:54;3.67;;;1.40;;
19727;SDS011;10015;52.530;13.390;2023-12-20T05:28:20;7.27;;;1.90;;
19727;SDS011;10015;52.530;13.390;2023-12-20T05:30:45;7.60;;;1.50;;
19727;SDS011;10015;52.530;13.390;2023-12-20T05:33:11;8.50;;;1.60;;
19727;SDS011;10015;52.530;13.390;2023-12-20T05:35:37;10.00;;;1.50;;
19727;SDS011;10015;52.530;13.390;2023-12-20T05:38:03;4.40;;;1.23;;
19727;SDS011;10015;52.530;13.390;2023-12-20T05:40:29;7.80;;;1.20;;
19727;SDS011;10015;52.530;13.390;2023-12-20T05:42:55;7.23;;;1.70;;
19727;SDS011;10015;52.530;13.390;2023-12-20T05:45:23;8.73;;;1.20;;
19727;SDS011;10015;52.530;13.390;2023-12-20T05:47:49;7.93;;;1.60;;
19727;SDS011;10015;52.530;13.390;2023-12-20T05:50:15;7.10;;;1.43;;
19727;SDS011;10015;52.530;13.390;2023-12-20T05:52:40;10.70;;;1.87;;
19727;SDS011;10015;52.530;13.390;2023-12-20T05:55:07;3.43;;;1.17;;
19727;SDS011;10015;52.530;13.390;2023-12-20T05:57:34;9.43;;;1.63;;
19727;SDS011;10015;52.530;13.390;2023-12-20T06:00:00;8.73;;;1.20;;
19727;SDS011;10015;52.530;13.390;2023-12-20T06:02:26;4.97;;;1.30;;
19727;SDS011;10015;52.530;13.390;2023-12-20T06:04:52;6.17;;;1.30;;
19727;SDS011;10015;52.530;13.390;2023-12-20T06:07:18;6.53;;;1.17;;
19727;SDS011;10015;52.530;13.390;2023-12-20T06:09:44;8.43;;;1.33;;
19727;SDS011;10015;52.530;13.390;2023-12-20T06:12:10;4.50;;;1.10;;
19727;SDS011;10015;52.530;13.390;2023-12-20T06:14:36;5.90;;;1.67;;
19727;SDS011;10015;52.530;13.390;2023-12-20T06:17:02;5.03;;;1.00;;
19727;SDS011;10015;52.530;13.390;2023-12-20T06:19:28;8.00;;;1.50;;
19727;SDS011;10015;52.530;13.390;2023-12-20T06:21:55;7.47;;;1.20;;
19727;SDS011;10015;52.530;13.390;2023-12-20T06:24:21;4.50;;;1.37;;
19727;SDS011;10015;52.530;13.390;2023-12-20T06:26:47;7.17;;;1.27;;
19727;SDS011;10015;52.530;13.390;2023-12-20T06:29:13;9.87;;;1.60;;
19727;SDS011;10015;52.530;13.390;2023-12-20T06:31:39;6.67;;;1.20;;
19727;SDS011;10015;52.530;13.390;2023-12-20T06:34:05;6.30;;;1.37;;
19727;SDS011;10015;52.530;13.390;2023-12-20T06:36:31;8.93;;;1.70;;
19727;SDS011;10015;52.530;13.390;2023-12-20T06:38:57;8.80;;;1.50;;
19727;SDS011;10015;52.530;13.390;2023-12-20T06:41:23;6.60;;;1.70;;
19727;SDS011;10015;52.530;13.390;2023-12-20T06:43:49;7.43;;;1.13;;
19727;SDS011;10015;52.530;13.390;2023-12-20T06:46:16;6.03;;;1.23;;
19727;SDS011;10015;52.530;13.390;2023-12-20T06:48:42;12.87;;;2.70;;
19727;SDS011;10015;52.530;13.390;2023-12-20T06:51:10;6.43;;;1.80;;
19727;SDS011;10015;52.530;13.390;2023-12-20T06:53:40;5.30;;;1.37;;
19727;SDS011;10015;52.530;13.390;2023-12-20T06:56:06;12.33;;;1.50;;
19727;SDS011;10015;52.530;13.390;2023-12-20T06:58:32;5.00;;;1.50;;
19727;SDS011;10015;52.530;13.390;2023-12-20T07:00:58;3.53;;;1.20;;
19727;SDS011;10015;52.530;13.390;2023-12-20T07:03:24;10.50;;;1.93;;
19727;SDS011;10015;52.530;13.390;2023-12-20T07:05:50;6.17;;;1.63;;
19727;SDS011;10015;52.530;13.390;2023-12-20T07:08:16;3.57;;;1.50;;
19727;SDS011;10015;52.530;13.390;2023-12-20T07:10:42;6.97;;;1.80;;
19727;SDS011;10015;52.530;13.390;2023-12-20T07:13:07;7.43;;;1.70;;
19727;SDS011;10015;52.530;13.390;2023-12-20T07:15:33;9.17;;;2.00;;
19727;SDS011;10015;52.530;13.390;2023-12-20T07:17:59;7.33;;;1.90;;
19727;SDS011;10015;52.530;13.390;2023-12-20T07:20:26;6.87;;;1.83;;
19727;SDS011;10015;52.530;13.390;2023-12-20T07:22:51;5.67;;;1.80;;
19727;SDS011;10015;52.530;13.390;2023-12-20T07:25:17;7.33;;;1.70;;
19727;SDS011;10015;52.530;13.390;2023-12-20T07:27:43;6.40;;;1.83;;
19727;SDS011;10015;52.530;13.390;2023-12-20T07:30:09;9.30;;;1.63;;
19727;SDS011;10015;52.530;13.390;2023-12-20T07:32:36;6.63;;;1.63;;
19727;SDS011;10015;52.530;13.390;2023-12-20T07:35:01;7.63;;;1.77;;
19727;SDS011;10015;52.530;13.390;2023-12-20T07:37:28;7.07;;;1.37;;
19727;SDS011;10015;52.530;13.390;2023-12-20T07:39:54;9.40;;;2.00;;
19727;SDS011;10015;52.530;13.390;2023-12-20T07:42:22;4.77;;;1.90;;
19727;SDS011;10015;52.530;13.390;2023-12-20T07:44:48;12.50;;;1.90;;
19727;SDS011;10015;52.530;13.390;2023-12-20T07:47:14;11.00;;;1.87;;
19727;SDS011;10015;52.530;13.390;2023-12-20T07:49:43;9.53;;;1.40;;
19727;SDS011;10015;52.530;13.390;2023-12-20T07:52:09;9.47;;;1.40;;
19727;SDS011;10015;52.530;13.390;2023-12-20T07:54:35;6.30;;;1.20;;
19727;SDS011;10015;52.530;13.390;2023-12-20T07:57:00;7.43;;;2.10;;
19727;SDS011;10015;52.530;13.390;2023-12-20T07:59:26;6.67;;;1.50;;
19727;SDS011;10015;52.530;13.390;2023-12-20T08:01:52;6.00;;;1.70;;
19727;SDS011;10015;52.530;13.390;2023-12-20T08:04:18;5.17;;;1.30;;
19727;SDS011;10015;52.530;13.390;2023-12-20T08:06:44;9.73;;;2.03;;
19727;SDS011;10015;52.530;13.390;2023-12-20T08:09:10;7.13;;;1.47;;
19727;SDS011;10015;52.530;13.390;2023-12-20T08:11:36;6.80;;;1.70;;
19727;SDS011;10015;52.530;13.390;2023-12-20T08:14:04;5.93;;;1.70;;
19727;SDS011;10015;52.530;13.390;2023-12-20T08:16:30;8.33;;;1.57;;
19727;SDS011;10015;52.530;13.390;2023-12-20T08:18:56;6.83;;;1.50;;
19727;SDS011;10015;52.530;13.390;2023-12-20T08:21:21;8.57;;;1.77;;
19727;SDS011;10015;52.530;13.390;2023-12-20T08:23:48;9.97;;;1.83;;
19727;SDS011;10015;52.530;13.390;2023-12-20T08:26:14;5.83;;;1.50;;
19727;SDS011;10015;52.530;13.390;2023-12-20T08:28:45;12.80;;;1.60;;
19727;SDS011;10015;52.530;13.390;2023-12-20T08:31:15;9.10;;;1.77;;
19727;SDS011;10015;52.530;13.390;2023-12-20T08:33:45;6.50;;;1.33;;
19727;SDS011;10015;52.530;13.390;2023-12-20T08:36:12;10.20;;;1.50;;
19727;SDS011;10015;52.530;13.390;2023-12-20T08:38:38;5.47;;;1.30;;
19727;SDS011;10015;52.530;13.390;2023-12-20T08:41:04;7.00;;;1.43;;
19727;SDS011;10015;52.530;13.390;2023-12-20T08:43:31;8.77;;;1.50;;
19727;SDS011;10015;52.530;13.390;2023-12-20T08:45:57;5.73;;;1.20;;
19727;SDS011;10015;52.530;13.390;2023-12-20T08:48:23;7.07;;;1.70;;
19727;SDS011;10015;52.530;13.390;2023-12-20T08:50:49;4.57;;;1.50;;
19727;SDS011;10015;52.530;13.390;2023-12-20T08:53:17;4.63;;;1.50;;
19727;SDS011;10015;52.530;13.390;2023-12-20T08:55:44;9.90;;;1.40;;
19727;SDS011;10015;52.530;13.390;2023-12-20T08:58:10;7.97;;;2.30;;
19727;SDS011;10015;52.530;13.390;2023-12-20T09:00:36;9.97;;;1.70;;
19727;SDS011;10015;52.530;13.390;2023-12-20T09:03:02;6.73;;;1.73;;
19727;SDS011;10015;52.530;13.390;2023-12-20T09:05:28;9.67;;;1.70;;
19727;SDS011;10015;52.530;13.390;2023-12-20T09:07:54;10.67;;;2.03;;
19727;SDS011;10015;52.530;13.390;2023-12-20T09:10:20;7.27;;;1.67;;
19727;SDS011;10015;52.530;13.390;2023-12-20T09:12:48;6.17;;;1.30;;
19727;SDS011;10015;52.530;13.390;2023-12-20T09:15:15;6.27;;;1.30;;
19727;SDS011;10015;52.530;13.390;2023-12-20T09:17:41;5.60;;;1.47;;
19727;SDS011;10015;52.530;13.390;2023-12-20T09:20:07;7.33;;;1.47;;
19727;SDS011;10015;52.530;13.390;2023-12-20T09:22:33;7.40;;;1.40;;
19727;SDS011;10015;52.530;13.390;2023-12-20T09:25:00;4.93;;;1.60;;
19727;SDS011;10015;52.530;13.390;2023-12-20T09:27:27;5.83;;;1.40;;
19727;SDS011;10015;52.530;13.390;2023-12-20T09:29:53;8.30;;;1.87;;
19727;SDS011;10015;52.530;13.390;2023-12-20T09:32:22;4.50;;;1.40;;
19727;SDS011;10015;52.530;13.390;2023-12-20T09:34:48;7.77;;;1.90;;
19727;SDS011;10015;52.530;13.390;2023-12-20T09:37:13;15.80;;;1.90;;
19727;SDS011;10015;52.530;13.390;2023-12-20T09:39:39;6.80;;;1.50;;
19727;SDS011;10015;52.530;13.390;2023-12-20T09:42:06;6.40;;;1.33;;
19727;SDS011;10015;52.530;13.390;2023-12-20T09:44:32;6.57;;;1.33;;
19727;SDS011;10015;52.530;13.390;2023-12-20T09:47:03;7.03;;;1.30;;
19727;SDS011;10015;52.530;13.390;2023-12-20T09:49:29;8.60;;;2.00;;
19727;SDS011;10015;52.530;13.390;2023-12-20T09:51:56;5.30;;;1.93;;
19727;SDS011;10015;52.530;13.390;2023-12-20T09:54:23;5.80;;;1.67;;
19727;SDS011;10015;52.530;13.390;2023-12-20T09:56:49;6.27;;;1.37;;
19727;SDS011;10015;52.530;13.390;2023-12-20T09:59:19;8.67;;;1.80;;
19727;SDS011;10015;52.530;13.390;2023-12-20T10:01:44;8.57;;;1.87;;
19727;SDS011;10015;52.530;13.390;2023-12-20T10:04:11;12.90;;;2.73;;
19727;SDS011;10015;52.530;13.390;2023-12-20T10:06:42;13.17;;;4.50;;
19727;SDS011;10015;52.530;13.390;2023-12-20T10:09:09;8.57;;;2.27;;
19727;SDS011;10015;52.530;13.390;2023-12-20T10:11:36;6.83;;;1.50;;
19727;SDS011;10015;52.530;13.390;2023-12-20T10:14:03;8.67;;;2.53;;
19727;SDS011;10015;52.530;13.390;2023-12-20T10:16:30;11.87;;;2.90;;
19727;SDS011;10015;52.530;13.390;2023-12-20T10:18:56;9.30;;;3.90;;
19727;SDS011;10015;52.530;13.390;2023-12-20T10:21:22;10.83;;;3.27;;
19727;SDS011;10015;52.530;13.390;2023-12-20T10:23:51;7.67;;;2.53;;
19727;SDS011;10015;52.530;13.390;2023-12-20T10:26:19;7.10;;;1.90;;
19727;SDS011;10015;52.530;13.390;2023-12-20T10:28:55;6.20;;;2.00;;
19727;SDS011;10015;52.530;13.390;2023-12-20T10:33:58;4.63;;;1.60;;
19727;SDS011;10015;52.530;13.390;2023-12-20T10:36:26;6.07;;;1.43;;
19727;SDS011;10015;52.530;13.390;2023-12-20T10:38:55;9.07;;;1.70;;
19727;SDS011;10015;52.530;13.390;2023-12-20T10:41:24;8.23;;;1.53;;
19727;SDS011;10015;52.530;13.390;2023-12-20T10:43:55;4.97;;;1.70;;
19727;SDS011;10015;52.530;13.390;2023-12-20T10:46:27;6.37;;;1.90;;
19727;SDS011;10015;52.530;13.390;2023-12-20T10:48:55;6.13;;;1.50;;
19727;SDS011;10015;52.530;13.390;2023-12-20T10:51:24;8.33;;;1.60;;
19727;SDS011;10015;52.530;13.390;2023-12-20T10:53:56;10.00;;;1.80;;
19727;SDS011;10015;52.530;13.390;2023-12-20T10:56:22;5.77;;;1.47;;
19727;SDS011;10015;52.530;13.390;2023-12-20T10:58:50;8.90;;;2.00;;
19727;SDS011;10015;52.530;13.390;2023-12-20T11:01:17;8.73;;;2.70;;
19727;SDS011;10015;52.530;13.390;2023-12-20T11:03:50;9.77;;;3.13;;
19727;SDS011;10015;52.530;13.390;2023-12-20T11:06:27;10.43;;;2.10;;
19727;SDS011;10015;52.530;13.390;2023-12-20T11:09:03;11.90;;;2.27;;
19727;SDS011;10015;52.530;13.390;2023-12-20T11:17:16;9.37;;;2.17;;
19727;SDS011;10015;52.530;13.390;2023-12-20T11:22:19;7.63;;;1.90;;
19727;SDS011;10015;52.530;13.390;2023-12-20T11:24:47;9.93;;;2.40;;
19727;SDS011;10015;52.530;13.390;2023-12-20T11:27:14;6.73;;;1.77;;
19727;SDS011;10015;52.530;13.390;2023-12-20T11:29:40;11.07;;;2.00;;
19727;SDS011;10015;52.530;13.390;2023-12-20T11:34:58;11.07;;;2.10;;
19727;SDS011;10015;52.530;13.390;2023-12-20T11:37:29;10.43;;;1.90;;
19727;SDS011;10015;52.530;13.390;2023-12-20T11:40:03;9.03;;;1.90;;
19727;SDS011;10015;52.530;13.390;2023-12-20T11:42:42;7.83;;;2.03;;
19727;SDS011;10015;52.530;13.390;2023-12-20T11:45:14;6.10;;;1.77;;
19727;SDS011;10015;52.530;13.390;2023-12-20T11:47:43;6.40;;;1.83;;
19727;SDS011;10015;52.530;13.390;2023-12-20T11:50:11;7.57;;;1.70;;
19727;SDS011;10015;52.530;13.390;2023-12-20T11:52:37;9.37;;;2.03;;
19727;SDS011;10015;52.530;13.390;2023-12-20T11:55:04;8.90;;;1.73;;
19727;SDS011;10015;52.530;13.390;2023-12-20T11:57:31;8.93;;;2.27;;
19727;SDS011;10015;52.530;13.390;2023-12-20T11:59:57;7.53;;;1.57;;
19727;SDS011;10015;52.530;13.390;2023-12-20T12:02:24;8.47;;;1.83;;
19727;SDS011;10015;52.530;13.390;2023-12-20T12:04:50;5.10;;;1.60;;
19727;SDS011;10015;52.530;13.390;2023-12-20T12:07:16;6.53;;;1.67;;
19727;SDS011;10015;52.530;13.390;2023-12-20T12:09:43;7.57;;;2.23;;
19727;SDS011;10015;52.530;13.390;2023-12-20T12:12:11;8.97;;;1.80;;
19727;SDS011;10015;52.530;13.390;2023-12-20T12:14:38;11.70;;;2.17;;
19727;SDS011;10015;52.530;13.390;2023-12-20T12:17:15;7.33;;;2.13;;
19727;SDS011;10015;52.530;13.390;2023-12-20T12:19:41;6.40;;;2.00;;
19727;SDS011;10015;52.530;13.390;2023-12-20T12:22:16;11.43;;;2.00;;
19727;SDS011;10015;52.530;13.390;2023-12-20T12:24:48;9.30;;;1.87;;
19727;SDS011;10015;52.530;13.390;2023-12-20T12:27:18;8.87;;;1.93;;
19727;SDS011;10015;52.530;13.390;2023-12-20T12:30:03;10.63;;;2.20;;
19727;SDS011;10015;52.530;13.390;2023-12-20T12:32:38;6.50;;;1.83;;
19727;SDS011;10015;52.530;13.390;2023-12-20T12:35:05;4.63;;;1.63;;
19727;SDS011;10015;52.530;13.390;2023-12-20T12:37:35;4.83;;;1.93;;
19727;SDS011;10015;52.530;13.390;2023-12-20T12:40:06;9.60;;;2.23;;
19727;SDS011;10015;52.530;13.390;2023-12-20T12:42:45;10.03;;;1.77;;
19727;SDS011;10015;52.530;13.390;2023-12-20T12:45:12;8.77;;;2.03;;
19727;SDS011;10015;52.530;13.390;2023-12-20T12:47:39;7.27;;;1.80;;
19727;SDS011;10015;52.530;13.390;2023-12-20T12:50:06;6.87;;;2.23;;
19727;SDS011;10015;52.530;13.390;2023-12-20T12:52:39;5.70;;;2.00;;
19727;SDS011;10015;52.530;13.390;2023-12-20T12:55:06;11.37;;;2.00;;
19727;SDS011;10015;52.530;13.390;2023-12-20T12:57:34;8.67;;;2.17;;
19727;SDS011;10015;52.530;13.390;2023-12-20T13:00:00;8.00;;;1.80;;
19727;SDS011;10015;52.530;13.390;2023-12-20T13:02:34;4.03;;;1.70;;
19727;SDS011;10015;52.530;13.390;2023-12-20T13:05:12;6.17;;;1.63;;
19727;SDS011;10015;52.530;13.390;2023-12-20T13:07:38;10.67;;;2.10;;
19727;SDS011;10015;52.530;13.390;2023-12-20T13:10:05;7.80;;;1.90;;
19727;SDS011;10015;52.530;13.390;2023-12-20T13:12:31;6.30;;;1.90;;
19727;SDS011;10015;52.530;13.390;2023-12-20T13:14:57;6.30;;;1.83;;
19727;SDS011;10015;52.530;13.390;2023-12-20T13:17:24;6.03;;;2.03;;
19727;SDS011;10015;52.530;13.390;2023-12-20T13:20:02;10.63;;;2.03;;
19727;SDS011;10015;52.530;13.390;2023-12-20T13:22:32;8.83;;;2.23;;
19727;SDS011;10015;52.530;13.390;2023-12-20T13:25:07;3.20;;;1.37;;
19727;SDS011;10015;52.530;13.390;2023-12-20T13:27:34;2.90;;;1.00;;
19727;SDS011;10015;52.530;13.390;2023-12-20T13:30:03;4.20;;;0.90;;
19727;SDS011;10015;52.530;13.390;2023-12-20T13:32:30;2.87;;;0.70;;
19727;SDS011;10015;52.530;13.390;2023-12-20T13:34:56;3.20;;;1.07;;
19727;SDS011;10015;52.530;13.390;2023-12-20T13:37:23;2.60;;;1.00;;
19727;SDS011;10015;52.530;13.390;2023-12-20T13:39:49;1.40;;;0.70;;
19727;SDS011;10015;52.530;13.390;2023-12-20T13:42:15;1.43;;;0.77;;
19727;SDS011;10015;52.530;13.390;2023-12-20T13:44:43;0.60;;;0.60;;
19727;SDS011;10015;52.530;13.390;2023-12-20T13:47:09;2.53;;;0.63;;
19727;SDS011;10015;52.530;13.390;2023-12-20T13:49:35;2.30;;;0.60;;
19727;SDS011;10015;52.530;13.390;2023-12-20T13:52:03;1.90;;;0.83;;
19727;SDS011;10015;52.530;13.390;2023-12-20T13:54:30;0.77;;;0.63;;
19727;SDS011;10015;52.530;13.390;2023-12-20T13:56:56;2.10;;;0.60;;
19727;SDS011;10015;52.530;13.390;2023-12-20T13:59:23;21.60;;;8.07;;
19727;SDS011;10015;52.530;13.390;2023-12-20T14:01:49;4.90;;;2.40;;
19727;SDS011;10015;52.530;13.390;2023-12-20T14:04:16;2.67;;;0.80;;
19727;SDS011;10015;52.530;13.390;2023-12-20T14:06:42;1.70;;;0.70;;
19727;SDS011;10015;52.530;13.390;2023-12-20T14:09:08;2.53;;;0.90;;
19727;SDS011;10015;52.530;13.390;2023-12-20T14:11:37;2.67;;;0.90;;
19727;SDS011;10015;52.530;13.390;2023-12-20T14:14:07;3.43;;;1.00;;
19727;SDS011;10015;52.530;13.390;2023-12-20T14:16:33;2.57;;;0.60;;
19727;SDS011;10015;52.530;13.390;2023-12-20T14:19:00;3.87;;;0.97;;
19727;SDS011;10015;52.530;13.390;2023-12-20T14:21:28;2.93;;;0.80;;
19727;SDS011;10015;52.530;13.390;2023-12-20T14:23:54;2.77;;;0.80;;
19727;SDS011;10015;52.530;13.390;2023-12-20T14:26:21;2.70;;;0.80;;
19727;SDS011;10015;52.530;13.390;2023-12-20T14:28:47;6.13;;;2.87;;
19727;SDS011;10015;52.530;13.390;2023-12-20T14:31:13;10.87;;;4.63;;
19727;SDS011;10015;52.530;13.390;2023-12-20T14:33:39;10.20;;;4.70;;
19727;SDS011;10015;52.530;13.390;2023-12-20T14:36:10;3.10;;;1.00;;
19727;SDS011;10015;52.530;13.390;2023-12-20T14:38:39;1.53;;;0.60;;
19727;SDS011;10015;52.530;13.390;2023-12-20T14:41:29;1.83;;;0.60;;
19727;SDS011;10015;52.530;13.390;2023-12-20T14:44:03;1.70;;;0.53;;
19727;SDS011;10015;52.530;13.390;2023-12-20T14:46:32;2.67;;;0.60;;